createdAt,value
2019-03-22T00:02:30.899Z,8.27
2019-03-22T00:07:33.341Z,8.30
2019-03-22T00:12:35.997Z,8.20
2019-03-22T00:17:38.557Z,8.16
2019-03-22T00:22:42.177Z,8.08
2019-03-22T00:27:45.003Z,8.01
2019-03-22T00:32:47.434Z,7.88
2019-03-22T00:37:50.003Z,7.85
2019-03-22T00:42:52.457Z,7.80
2019-03-22T00:47:54.913Z,7.81
2019-03-22T00:52:57.572Z,7.81
2019-03-22T00:58:00.121Z,7.77
2019-03-22T01:03:03.237Z,7.75
2019-03-22T01:08:05.862Z,7.65
2019-03-22T01:13:08.310Z,7.68
2019-03-22T01:18:10.879Z,7.61
2019-03-22T01:23:14.311Z,7.52
2019-03-22T01:28:16.789Z,7.61
2019-03-22T01:33:19.412Z,7.50
2019-03-22T01:38:21.936Z,7.51
2019-03-22T01:43:24.490Z,7.35
2019-03-22T01:48:33.096Z,7.16
2019-03-22T01:53:36.600Z,7.01
2019-03-22T01:58:39.054Z,6.91
2019-03-22T02:03:41.694Z,6.81
2019-03-22T02:08:44.233Z,6.85
2019-03-22T02:19:43.844Z,6.90
2019-03-22T02:24:46.233Z,6.86
2019-03-22T02:29:48.603Z,6.76
2019-03-22T02:34:51.003Z,6.69
2019-03-22T02:39:53.683Z,6.70
2019-03-22T02:44:56.404Z,6.65
2019-03-22T02:56:15.441Z,6.55
2019-03-22T03:01:18.254Z,6.36
2019-03-22T03:06:20.634Z,6.34
2019-03-22T03:11:23.193Z,6.30
2019-03-22T03:16:25.591Z,6.36
2019-03-22T03:21:27.992Z,6.35
2019-03-22T03:26:30.356Z,6.31
2019-03-22T03:31:32.971Z,6.28
2019-03-22T03:36:35.330Z,6.21
2019-03-22T03:41:37.715Z,6.05
2019-03-22T03:46:40.190Z,6.05
2019-03-22T03:51:42.709Z,5.92
2019-03-22T03:56:45.108Z,5.84
2019-03-22T04:01:47.487Z,5.92
2019-03-22T04:06:49.852Z,5.80
2019-03-22T04:11:52.237Z,5.87
2019-03-22T04:16:54.592Z,5.73
2019-03-22T04:21:56.973Z,5.73
2019-03-22T04:26:59.344Z,5.82
2019-03-22T04:32:01.721Z,5.86
2019-03-22T04:37:04.175Z,5.65
2019-03-22T04:42:06.653Z,5.90
2019-03-22T04:47:10.724Z,5.73
2019-03-22T04:52:14.240Z,5.49
2019-03-22T04:57:18.420Z,5.11
2019-03-22T05:02:21.628Z,4.70
2019-03-22T05:07:24.197Z,4.62
2019-03-22T05:12:27.066Z,4.60
2019-03-22T05:17:30.854Z,4.52
2019-03-22T05:22:36.123Z,4.55
2019-03-22T05:27:41.701Z,4.50
2019-03-22T05:32:44.085Z,4.36
2019-03-22T05:37:46.445Z,4.42
2019-03-22T05:42:49.009Z,4.51
2019-03-22T05:47:51.474Z,4.58
2019-03-22T05:52:53.891Z,4.61
2019-03-22T05:57:56.251Z,4.59
2019-03-22T06:02:58.637Z,4.66
2019-03-22T06:08:02.100Z,4.80
2019-03-22T06:13:05.476Z,4.91
2019-03-22T06:18:07.852Z,5.08
2019-03-22T06:23:10.341Z,5.09
2019-03-22T06:28:12.698Z,5.21
2019-03-22T06:33:15.076Z,5.31
2019-03-22T06:38:17.432Z,5.41
2019-03-22T06:43:20.049Z,5.69
2019-03-22T06:48:22.419Z,6.09
2019-03-22T06:53:25.131Z,6.61
2019-03-22T06:58:27.521Z,6.80
2019-03-22T07:03:31.021Z,7.14
2019-03-22T07:08:33.577Z,7.40
2019-03-22T07:13:37.271Z,7.76
2019-03-22T07:18:39.681Z,7.88
2019-03-22T07:23:42.170Z,8.16
2019-03-22T07:28:44.554Z,8.30
2019-03-22T07:33:47.043Z,8.69
2019-03-22T07:38:49.439Z,8.77
2019-03-22T07:43:51.809Z,8.87
2019-03-22T07:48:54.191Z,9.35
2019-03-22T07:53:57.751Z,9.52
2019-03-22T07:59:00.106Z,9.68
2019-03-22T08:04:02.698Z,9.78
2019-03-22T08:09:07.828Z,10.04
2019-03-22T08:14:10.326Z,9.91
2019-03-22T08:19:12.803Z,9.93
2019-03-22T08:24:16.227Z,9.96
2019-03-22T08:29:18.671Z,9.93
2019-03-22T08:34:21.071Z,10.62
2019-03-22T08:39:23.535Z,10.67
2019-03-22T08:44:25.907Z,10.63
2019-03-22T08:49:28.415Z,10.81
2019-03-22T08:54:30.981Z,11.24
2019-03-22T08:59:33.451Z,11.42
2019-03-22T09:04:35.807Z,11.54
2019-03-22T09:09:41.654Z,11.85
2019-03-22T09:14:42.507Z,12.27
2019-03-22T09:19:44.972Z,12.36
2019-03-22T09:24:47.350Z,12.70
2019-03-22T09:29:49.747Z,13.00
2019-03-22T09:34:52.165Z,13.20
2019-03-22T09:39:54.492Z,13.44
2019-03-22T09:44:56.993Z,13.36
2019-03-22T09:49:59.693Z,14.05
2019-03-22T09:55:12.739Z,14.22
2019-03-22T10:00:07.902Z,14.33
2019-03-22T10:05:10.276Z,14.46
2019-03-22T10:10:12.766Z,14.77
2019-03-22T10:15:15.170Z,15.03
2019-03-22T10:20:17.760Z,15.30
2019-03-22T10:25:20.220Z,15.38
2019-03-22T10:30:26.911Z,15.80
2019-03-22T10:35:29.337Z,15.99
2019-03-22T10:40:31.751Z,15.93
2019-03-22T10:45:34.122Z,16.47
2019-03-22T10:50:36.528Z,16.64
2019-03-22T10:55:39.049Z,16.86
2019-03-22T11:00:41.649Z,17.06
2019-03-22T11:05:44.050Z,17.11
2019-03-22T11:10:46.571Z,17.42
2019-03-22T11:15:49.048Z,17.72
2019-03-22T11:20:51.405Z,18.08
2019-03-22T11:26:00.287Z,18.35
2019-03-22T11:31:04.647Z,18.39
2019-03-22T11:36:03.260Z,18.55
2019-03-22T11:41:05.887Z,18.88
2019-03-22T11:46:08.641Z,19.43
2019-03-22T11:51:11.103Z,19.26
2019-03-22T11:56:13.554Z,19.52
2019-03-22T12:01:20.389Z,19.53
2019-03-22T12:06:21.190Z,20.01
2019-03-22T12:11:23.552Z,20.35
2019-03-22T12:16:25.919Z,20.51
2019-03-22T12:21:28.396Z,20.48
2019-03-22T12:26:30.783Z,20.71
2019-03-22T12:31:33.400Z,21.07
2019-03-22T12:36:36.904Z,21.45
2019-03-22T12:41:39.285Z,21.19
2019-03-22T12:46:41.764Z,21.65
2019-03-22T12:51:44.139Z,21.69
2019-03-22T12:56:46.559Z,22.52
2019-03-22T13:01:48.931Z,22.41
2019-03-22T13:06:53.186Z,22.44
2019-03-22T13:11:55.703Z,22.65
2019-03-22T13:16:58.174Z,22.64
2019-03-22T13:22:00.629Z,23.19
2019-03-22T13:27:04.573Z,22.80
2019-03-22T13:32:06.948Z,23.03
2019-03-22T13:37:09.451Z,23.14
2019-03-22T13:42:11.816Z,23.16
2019-03-22T13:47:15.248Z,22.87
2019-03-22T13:52:17.684Z,23.36
2019-03-22T13:57:20.297Z,23.67
2019-03-22T14:02:23.078Z,24.14
2019-03-22T14:07:25.556Z,24.65
2019-03-22T14:12:36.757Z,25.66
2019-03-22T14:17:32.338Z,26.21
2019-03-22T14:22:34.734Z,26.87
2019-03-22T14:27:37.459Z,27.21
2019-03-22T14:32:39.831Z,27.20
2019-03-22T14:37:42.199Z,27.25
2019-03-22T14:42:44.580Z,27.75
2019-03-22T14:47:47.372Z,28.06
2019-03-22T14:52:49.765Z,28.29
2019-03-22T14:57:52.623Z,28.52
2019-03-22T15:02:55.270Z,28.64
2019-03-22T15:07:58.060Z,28.64
2019-03-22T15:13:00.458Z,28.76
2019-03-22T15:18:16.430Z,29.66
2019-03-22T15:23:50.722Z,29.35
2019-03-22T15:29:11.659Z,29.99
2019-03-22T15:34:28.209Z,29.99
2019-03-22T15:39:51.121Z,30.42
2019-03-22T15:44:53.642Z,29.14
2019-03-22T15:49:56.100Z,29.06
2019-03-22T15:54:58.530Z,29.33
2019-03-22T16:00:01.117Z,28.21
2019-03-22T16:05:05.145Z,28.10
2019-03-22T16:10:08.361Z,27.53
2019-03-22T16:15:12.464Z,27.15
2019-03-22T16:20:16.018Z,27.16
2019-03-22T16:25:18.628Z,26.42
2019-03-22T16:30:21.301Z,25.92
2019-03-22T16:35:23.771Z,25.40
2019-03-22T16:40:26.178Z,25.05
2019-03-22T16:45:39.644Z,24.27
2019-03-22T16:51:07.191Z,23.87
2019-03-22T16:56:09.641Z,22.92
2019-03-22T17:01:13.221Z,22.18
2019-03-22T17:06:15.603Z,21.34
2019-03-22T17:11:17.980Z,20.22
2019-03-22T17:16:20.350Z,19.30
2019-03-22T17:21:22.832Z,18.39
2019-03-22T17:26:25.252Z,17.62
2019-03-22T17:31:27.614Z,17.04
2019-03-22T17:36:30.013Z,16.71
2019-03-22T17:41:32.426Z,16.28
2019-03-22T17:46:34.787Z,16.17
2019-03-22T17:51:37.150Z,16.14
2019-03-22T17:56:39.623Z,15.68
2019-03-22T18:01:42.003Z,15.53
2019-03-22T18:06:44.406Z,15.49
2019-03-22T18:11:47.576Z,15.23
2019-03-22T18:16:50.143Z,14.95
2019-03-22T18:21:54.531Z,14.66
2019-03-22T18:26:56.918Z,14.85
2019-03-22T18:31:59.292Z,14.93
2019-03-22T18:37:01.890Z,14.53
2019-03-22T18:42:04.540Z,14.47
2019-03-22T18:47:07.011Z,14.35
2019-03-22T18:52:09.418Z,14.39
2019-03-22T18:57:12.723Z,14.29
2019-03-22T19:02:15.326Z,14.43
2019-03-22T19:07:17.693Z,14.15
2019-03-22T19:12:20.094Z,13.98
2019-03-22T19:17:22.463Z,14.01
2019-03-22T19:22:24.834Z,13.81
2019-03-22T19:27:27.488Z,13.28
2019-03-22T19:32:29.876Z,13.14
2019-03-22T19:37:32.269Z,13.39
2019-03-22T19:42:35.072Z,13.23
2019-03-22T19:47:37.483Z,13.23
2019-03-22T19:52:39.952Z,12.72
2019-03-22T19:57:42.433Z,12.49
2019-03-22T20:02:44.912Z,12.48
2019-03-22T20:07:47.268Z,12.32
2019-03-22T20:12:49.684Z,12.19
2019-03-22T20:17:52.241Z,12.31
2019-03-22T20:22:54.768Z,12.31
2019-03-22T20:27:57.317Z,12.05
2019-03-22T20:33:00.164Z,12.08
2019-03-22T20:38:02.700Z,11.95
2019-03-22T20:43:05.204Z,11.95
2019-03-22T20:48:07.909Z,11.83
2019-03-22T20:53:13.310Z,11.83
2019-03-22T20:58:15.692Z,11.71
2019-03-22T21:03:18.097Z,11.74
2019-03-22T21:08:20.467Z,11.60
2019-03-22T21:13:22.877Z,11.64
2019-03-22T21:18:25.260Z,11.44
2019-03-22T21:23:35.984Z,11.34
2019-03-22T21:28:32.049Z,11.24
2019-03-22T21:33:34.530Z,11.08
2019-03-22T21:38:37.080Z,10.90
2019-03-22T21:43:39.487Z,11.00
2019-03-22T21:48:42.889Z,10.92
2019-03-22T21:53:45.502Z,10.61
2019-03-22T21:58:47.930Z,10.23
2019-03-22T22:03:50.393Z,10.17
2019-03-22T22:08:52.775Z,10.21
2019-03-22T22:13:55.165Z,10.21
2019-03-22T22:18:57.645Z,10.14
2019-03-22T22:24:00.029Z,9.97
2019-03-22T22:29:02.520Z,9.95
2019-03-22T22:34:05.886Z,9.90
2019-03-22T22:39:08.252Z,9.84
2019-03-22T22:44:11.658Z,9.82
2019-03-22T22:49:14.053Z,9.81
2019-03-22T22:54:16.404Z,9.74
2019-03-22T22:59:18.811Z,9.75
2019-03-22T23:04:21.515Z,9.67
2019-03-22T23:09:23.878Z,9.67
2019-03-22T23:14:26.613Z,9.66
2019-03-22T23:19:29.097Z,9.66
2019-03-22T23:24:32.363Z,9.55
2019-03-22T23:29:34.832Z,9.46
2019-03-22T23:34:37.180Z,9.41
2019-03-22T23:39:39.593Z,9.29
2019-03-22T23:44:41.964Z,9.46
2019-03-22T23:49:44.328Z,9.39
2019-03-22T23:54:49.262Z,9.40
2019-03-22T23:59:51.636Z,9.42
